Time;durP1;ratioP1;P1;durP2;ratioP2;P2;SDS_P1;SDS_P2;PMS_P1;PMS_P2;Temp;Humidity;BMP_temperature;BMP_pressure;BME280_temperature;BME280_humidity;BME280_pressure;Samples;Min_cycle;Max_cycle;Signal;HPM_P1;HPM_P2
2023/04/16 00:00:11;;;;;;;13.47;4.33;;;10.30;99.90;;;;;;5043833;28;20217;-68
2023/04/16 00:02:37;;;;;;;13.97;4.57;;;9.80;99.90;;;;;;5052873;28;20697;-69
2023/04/16 00:05:03;;;;;;;8.70;3.37;;;10.70;99.90;;;;;;5052542;28;20173;-68
2023/04/16 00:07:29;;;;;;;10.40;3.30;;;10.30;99.90;;;;;;5052822;28;20184;-69
2023/04/16 00:09:55;;;;;;;10.60;2.97;;;10.30;99.90;;;;;;5052606;28;20227;-70
2023/04/16 00:12:20;;;;;;;14.60;3.73;;;12.10;99.90;;;;;;5052935;28;20169;-69
2023/04/16 00:14:46;;;;;;;11.47;3.97;;;10.30;99.90;;;;;;5052508;28;20601;-70
2023/04/16 00:17:12;;;;;;;14.93;4.30;;;10.30;99.90;;;;;;5052684;28;20588;-69
2023/04/16 00:19:37;;;;;;;18.13;4.63;;;10.20;99.90;;;;;;5052594;28;20209;-69
2023/04/16 00:22:03;;;;;;;10.23;3.70;;;10.20;99.90;;;;;;5052493;28;20648;-69
2023/04/16 00:24:29;;;;;;;11.63;4.00;;;;;;;;;;5052670;28;20530;-69
2023/04/16 00:26:55;;;;;;;12.50;3.90;;;10.20;99.90;;;;;;5052144;28;20193;-69
2023/04/16 00:29:21;;;;;;;11.97;4.07;;;10.10;99.90;;;;;;5052547;28;20184;-69
2023/04/16 00:31:47;;;;;;;13.53;4.37;;;10.20;99.90;;;;;;5052582;28;20185;-69
2023/04/16 00:34:12;;;;;;;19.17;4.60;;;10.20;99.90;;;;;;5051051;28;20181;-69
2023/04/16 00:36:38;;;;;;;13.50;4.40;;;10.20;99.90;;;;;;5051381;28;20174;-69
2023/04/16 00:39:03;;;;;;;14.53;5.60;;;10.30;99.90;;;;;;5052078;28;20614;-69
2023/04/16 00:41:29;;;;;;;14.93;5.00;;;10.60;99.90;;;;;;5051996;28;20659;-69
2023/04/16 00:43:55;;;;;;;11.80;4.77;;;10.20;99.90;;;;;;5051923;28;20177;-69
2023/04/16 00:46:24;;;;;;;17.43;4.50;;;10.30;99.90;;;;;;5052094;28;20260;-69
2023/04/16 00:48:51;;;;;;;13.60;4.10;;;9.90;99.90;;;;;;5051566;28;20241;-69
2023/04/16 00:51:18;;;;;;;12.07;4.80;;;10.20;99.90;;;;;;5051992;28;20617;-69
2023/04/16 00:53:44;;;;;;;11.70;4.83;;;10.20;99.90;;;;;;5051797;28;20181;-69
2023/04/16 00:56:11;;;;;;;14.47;7.33;;;10.20;99.90;;;;;;5050804;28;20193;-68
2023/04/16 00:58:38;;;;;;;14.03;6.37;;;10.10;99.90;;;;;;5051418;28;20181;-69
2023/04/16 01:01:04;;;;;;;14.30;6.00;;;10.10;99.90;;;;;;5051533;28;20232;-68
2023/04/16 01:03:38;;;;;;;14.53;5.57;;;10.20;99.90;;;;;;5051352;28;20184;-69
2023/04/16 01:06:06;;;;;;;18.23;5.43;;;10.00;99.90;;;;;;5051599;28;20181;-68
2023/04/16 01:08:32;;;;;;;12.57;5.70;;;10.00;99.90;;;;;;5051336;28;20265;-69
2023/04/16 01:10:57;;;;;;;12.57;5.40;;;10.20;99.90;;;;;;5051745;28;20774;-68
2023/04/16 01:13:23;;;;;;;17.47;5.47;;;10.30;99.90;;;;;;5051268;28;20208;-68
2023/04/16 01:15:48;;;;;;;9.47;3.80;;;10.10;99.90;;;;;;5051502;28;20264;-69
2023/04/16 01:18:19;;;;;;;14.17;4.00;;;10.10;99.90;;;;;;5051265;28;20655;-69
2023/04/16 01:20:46;;;;;;;9.40;3.40;;;9.90;99.90;;;;;;5050770;28;20691;-69
2023/04/16 01:23:11;;;;;;;14.17;4.10;;;10.00;99.90;;;;;;5051412;28;20181;-69
2023/04/16 01:25:38;;;;;;;14.03;4.60;;;10.00;99.90;;;;;;5051058;28;20690;-69
2023/04/16 01:28:04;;;;;;;10.83;3.67;;;10.10;99.90;;;;;;5051268;28;20627;-68
2023/04/16 01:30:30;;;;;;;16.03;4.27;;;;;;;;;;5050939;28;20257;-68
2023/04/16 01:32:56;;;;;;;10.37;4.10;;;10.10;99.90;;;;;;5051224;28;20645;-69
2023/04/16 01:35:23;;;;;;;9.63;3.57;;;9.90;99.90;;;;;;5050849;28;20185;-70
2023/04/16 01:37:49;;;;;;;12.03;3.97;;;10.00;99.90;;;;;;5051075;28;20187;-69
2023/04/16 01:40:16;;;;;;;8.17;3.50;;;9.80;99.90;;;;;;5050676;28;20201;-68
2023/04/16 01:42:41;;;;;;;12.70;3.97;;;10.00;99.90;;;;;;5051160;28;20181;-71
2023/04/16 01:45:07;;;;;;;15.47;4.17;;;10.00;99.90;;;;;;5049416;28;20710;-68
2023/04/16 01:47:33;;;;;;;15.63;4.83;;;10.00;99.90;;;;;;5050900;28;20188;-68
2023/04/16 01:50:00;;;;;;;12.67;4.53;;;9.90;99.90;;;;;;5050930;28;20556;-69
2023/04/16 01:52:26;;;;;;;11.50;3.80;;;;;;;;;;5050584;28;20173;-69
2023/04/16 01:54:51;;;;;;;13.67;3.43;;;8.70;99.90;;;;;;5051110;28;20188;-68
2023/04/16 01:57:17;;;;;;;9.13;3.30;;;;;;;;;;5050535;28;20204;-70
2023/04/16 01:59:43;;;;;;;12.47;3.30;;;9.90;99.90;;;;;;5048458;28;20307;-69
2023/04/16 02:02:12;;;;;;;11.43;4.50;;;10.00;99.90;;;;;;5050427;28;20285;-68
2023/04/16 02:04:47;;;;;;;14.47;4.80;;;10.00;99.90;;;;;;5050743;28;20230;-69
2023/04/16 02:07:13;;;;;;;12.77;3.77;;;10.10;99.90;;;;;;5050620;28;20292;-68
2023/04/16 02:09:39;;;;;;;8.97;3.20;;;10.00;99.90;;;;;;5051159;28;20655;-69
2023/04/16 02:12:06;;;;;;;9.23;3.10;;;10.00;99.90;;;;;;5050520;28;20173;-69
2023/04/16 02:14:32;;;;;;;11.43;3.07;;;10.00;99.90;;;;;;5051198;28;20184;-70
2023/04/16 02:17:01;;;;;;;10.93;3.03;;;10.30;99.90;;;;;;5050745;28;20211;-69
2023/04/16 02:19:27;;;;;;;9.57;3.03;;;9.90;99.90;;;;;;5046900;28;20196;-69
2023/04/16 02:21:53;;;;;;;14.90;3.50;;;7.80;99.90;;;;;;5050388;28;20299;-70
2023/04/16 02:24:20;;;;;;;11.17;2.80;;;9.90;99.90;;;;;;5049963;28;20659;-69
2023/04/16 02:26:46;;;;;;;9.77;3.17;;;9.80;99.90;;;;;;5050509;28;20601;-69
2023/04/16 02:29:12;;;;;;;7.00;2.57;;;10.20;99.90;;;;;;5050210;28;20181;-68
2023/04/16 02:31:38;;;;;;;8.13;3.03;;;8.30;99.90;;;;;;5049133;28;20654;-69
2023/04/16 02:34:04;;;;;;;9.40;2.37;;;9.80;99.90;;;;;;5050099;28;20180;-68
2023/04/16 02:36:30;;;;;;;6.57;2.53;;;9.80;99.90;;;;;;5050289;28;20181;-69
2023/04/16 02:38:57;;;;;;;11.60;2.47;;;;;;;;;;5050018;28;20207;-69
2023/04/16 02:41:22;;;;;;;9.50;2.90;;;9.80;99.90;;;;;;5050048;28;20220;-69
2023/04/16 02:43:48;;;;;;;7.53;2.20;;;9.90;99.90;;;;;;5049958;28;20182;-69
2023/04/16 02:46:14;;;;;;;10.27;2.50;;;9.90;99.90;;;;;;5050385;28;20195;-69
2023/04/16 02:48:39;;;;;;;7.63;2.30;;;9.70;99.90;;;;;;5050066;28;20658;-71
2023/04/16 02:51:05;;;;;;;8.10;2.30;;;9.70;99.90;;;;;;5050109;28;20202;-68
2023/04/16 02:53:31;;;;;;;10.43;2.40;;;9.80;99.90;;;;;;5050112;28;20177;-67
2023/04/16 02:55:56;;;;;;;8.73;1.93;;;9.80;99.90;;;;;;5049764;28;20199;-71
2023/04/16 02:58:24;;;;;;;7.93;2.00;;;9.80;99.90;;;;;;5050119;28;20177;-68
2023/04/16 03:00:50;;;;;;;7.70;2.37;;;9.70;99.90;;;;;;5051182;28;20240;-68
2023/04/16 03:03:16;;;;;;;7.57;1.93;;;9.70;99.90;;;;;;5054227;28;20206;-68
2023/04/16 03:05:42;;;;;;;10.10;2.23;;;9.70;99.90;;;;;;5053792;28;20656;-69
2023/04/16 03:08:08;;;;;;;3.77;1.60;;;9.70;99.90;;;;;;5054090;28;20596;-68
2023/04/16 03:10:35;;;;;;;5.90;1.80;;;9.70;99.90;;;;;;5053725;28;20185;-71
2023/04/16 03:13:01;;;;;;;9.47;2.27;;;9.60;99.90;;;;;;5054042;28;20207;-68
2023/04/16 03:15:26;;;;;;;7.07;2.07;;;9.70;99.90;;;;;;5053906;28;20640;-68
2023/04/16 03:17:52;;;;;;;6.47;1.57;;;9.60;99.90;;;;;;5053621;28;20597;-68
2023/04/16 03:20:18;;;;;;;11.30;1.73;;;9.60;99.90;;;;;;5053835;28;20219;-68
2023/04/16 03:22:45;;;;;;;9.47;1.90;;;9.60;99.90;;;;;;5053326;28;20264;-68
2023/04/16 03:25:11;;;;;;;7.47;1.80;;;10.00;99.90;;;;;;5053749;28;20196;-68
2023/04/16 03:27:38;;;;;;;7.90;1.87;;;9.50;99.90;;;;;;5053636;28;20189;-69
2023/04/16 03:30:06;;;;;;;2.60;1.57;;;9.60;99.90;;;;;;5053798;28;20204;-69
2023/04/16 03:32:31;;;;;;;9.00;1.90;;;9.60;99.90;;;;;;5053308;28;20262;-69
2023/04/16 03:34:57;;;;;;;5.07;1.40;;;9.60;99.90;;;;;;5053510;28;20647;-69
2023/04/16 03:37:22;;;;;;;5.83;1.60;;;9.60;99.90;;;;;;5053139;28;20264;-69
2023/04/16 03:39:48;;;;;;;6.13;1.60;;;9.60;99.90;;;;;;5053350;28;20178;-69
2023/04/16 03:42:14;;;;;;;4.63;1.70;;;9.70;99.90;;;;;;5053220;28;20189;-69
2023/04/16 03:44:40;;;;;;;10.87;2.00;;;9.60;99.90;;;;;;5053134;28;20177;-69
2023/04/16 03:47:05;;;;;;;4.50;1.70;;;9.60;99.90;;;;;;5051964;28;20192;-69
2023/04/16 03:49:31;;;;;;;10.57;1.67;;;9.70;99.90;;;;;;5052901;28;20193;-69
2023/04/16 03:51:57;;;;;;;6.73;1.50;;;9.60;99.90;;;;;;5051942;28;20193;-69
2023/04/16 03:54:22;;;;;;;9.03;2.07;;;9.60;99.90;;;;;;5052703;28;20189;-69
2023/04/16 03:56:48;;;;;;;7.53;1.87;;;9.60;99.90;;;;;;5053125;28;20228;-69
2023/04/16 03:59:14;;;;;;;10.70;2.20;;;9.70;99.90;;;;;;5049432;28;20214;-69
2023/04/16 04:01:40;;;;;;;6.27;1.53;;;9.60;99.90;;;;;;5053023;28;20692;-69
2023/04/16 04:04:05;;;;;;;8.90;1.60;;;9.40;99.90;;;;;;5052746;28;20636;-69
2023/04/16 04:06:31;;;;;;;7.10;2.03;;;10.10;99.90;;;;;;5052770;28;20177;-69
2023/04/16 04:08:58;;;;;;;8.57;2.07;;;9.60;99.90;;;;;;5052948;28;20570;-69
2023/04/16 04:11:23;;;;;;;8.10;2.00;;;9.60;99.90;;;;;;5051740;28;20644;-69
2023/04/16 04:13:49;;;;;;;7.63;1.67;;;9.70;99.90;;;;;;5052203;28;20180;-69
2023/04/16 04:16:15;;;;;;;5.83;1.43;;;9.70;99.90;;;;;;5052546;28;20180;-69
2023/04/16 04:18:40;;;;;;;6.50;1.73;;;9.60;99.90;;;;;;5052675;28;20280;-70
2023/04/16 04:21:07;;;;;;;8.03;1.80;;;9.70;99.90;;;;;;5052296;28;21298;-69
2023/04/16 04:23:34;;;;;;;7.20;1.60;;;9.60;99.90;;;;;;5052619;28;20231;-69
2023/04/16 04:26:02;;;;;;;3.57;1.50;;;9.60;99.90;;;;;;5052312;28;20281;-69
2023/04/16 04:28:28;;;;;;;6.80;1.57;;;9.70;99.90;;;;;;5052473;28;20537;-69
2023/04/16 04:30:54;;;;;;;9.63;2.87;;;9.60;99.90;;;;;;5052162;28;20188;-69
2023/04/16 04:33:20;;;;;;;10.03;4.00;;;9.70;99.90;;;;;;5052266;28;20181;-69
2023/04/16 04:35:45;;;;;;;17.17;4.27;;;9.60;99.90;;;;;;5052391;28;20195;-69
2023/04/16 04:38:11;;;;;;;15.00;3.70;;;;;;;;;;5052026;28;20181;-69
2023/04/16 04:40:37;;;;;;;11.17;3.50;;;9.40;99.90;;;;;;5052268;28;20216;-69
2023/04/16 04:43:03;;;;;;;10.67;3.77;;;;;;;;;;5050514;28;20181;-69
2023/04/16 04:45:29;;;;;;;15.60;3.97;;;9.80;99.90;;;;;;5052271;28;20185;-69
2023/04/16 04:47:55;;;;;;;13.13;3.67;;;;;;;;;;5051881;28;20188;-70
2023/04/16 04:50:21;;;;;;;9.40;3.97;;;9.60;99.90;;;;;;5051990;28;20652;-68
2023/04/16 04:52:47;;;;;;;9.73;3.30;;;9.70;99.90;;;;;;5051765;28;20226;-68
2023/04/16 04:55:14;;;;;;;15.87;3.87;;;9.60;99.90;;;;;;5052095;28;20185;-68
2023/04/16 04:57:40;;;;;;;13.97;3.93;;;;;;;;;;5051685;28;20181;-68
2023/04/16 05:00:07;;;;;;;13.60;3.13;;;9.60;99.90;;;;;;5051491;28;20717;-68
2023/04/16 05:02:32;;;;;;;14.80;3.57;;;9.60;99.90;;;;;;5051656;28;20647;-68
2023/04/16 05:04:58;;;;;;;8.87;3.10;;;9.50;99.90;;;;;;5051666;28;20177;-68
2023/04/16 05:07:24;;;;;;;9.27;2.80;;;9.60;99.90;;;;;;5052077;28;20769;-70
2023/04/16 05:09:49;;;;;;;6.90;2.63;;;9.40;99.90;;;;;;5051430;28;20181;-68
2023/04/16 05:12:15;;;;;;;8.17;2.50;;;9.70;99.90;;;;;;5043963;28;20185;-69
2023/04/16 05:14:41;;;;;;;10.63;2.80;;;9.30;99.90;;;;;;5051319;28;20644;-69
2023/04/16 05:17:06;;;;;;;8.10;3.17;;;9.40;99.90;;;;;;5051654;28;20188;-68
2023/04/16 05:19:32;;;;;;;9.23;3.20;;;9.60;99.90;;;;;;5051164;28;20181;-68
2023/04/16 05:21:58;;;;;;;8.77;3.10;;;9.70;99.90;;;;;;5051341;28;20695;-69
2023/04/16 05:24:24;;;;;;;6.90;2.70;;;9.50;99.90;;;;;;5050691;28;20170;-68
2023/04/16 05:26:50;;;;;;;10.57;3.30;;;9.60;99.90;;;;;;5051303;28;20208;-69
2023/04/16 05:29:15;;;;;;;9.17;3.13;;;9.40;99.90;;;;;;5051396;28;20663;-69
2023/04/16 05:31:42;;;;;;;10.63;3.10;;;;;;;;;;5050863;28;20576;-69
2023/04/16 05:34:07;;;;;;;9.70;3.00;;;9.60;99.90;;;;;;5051261;28;20203;-68
2023/04/16 05:36:33;;;;;;;10.70;2.73;;;9.10;99.90;;;;;;5051043;28;20652;-68
2023/04/16 05:38:58;;;;;;;10.40;3.57;;;9.60;99.90;;;;;;5051151;28;20640;-68
2023/04/16 05:41:24;;;;;;;10.97;2.97;;;9.60;99.90;;;;;;5049427;28;20300;-69
2023/04/16 05:43:50;;;;;;;7.07;3.17;;;9.50;99.90;;;;;;5051199;28;20678;-69
2023/04/16 05:46:15;;;;;;;9.50;2.83;;;9.60;99.90;;;;;;5050650;28;20177;-68
2023/04/16 05:48:41;;;;;;;9.53;3.37;;;9.60;99.90;;;;;;5050895;28;20656;-69
2023/04/16 05:51:06;;;;;;;8.80;3.07;;;9.70;99.90;;;;;;5050704;28;20177;-69
2023/04/16 05:53:32;;;;;;;9.67;2.77;;;9.60;99.90;;;;;;5050806;28;20178;-68
2023/04/16 05:55:57;;;;;;;6.20;2.60;;;9.60;99.90;;;;;;5050841;28;20651;-68
2023/04/16 05:58:23;;;;;;;7.87;2.63;;;;;;;;;;5050486;28;20231;-68
2023/04/16 06:00:49;;;;;;;10.17;2.83;;;9.60;99.90;;;;;;5049408;28;20801;-69
2023/04/16 06:03:15;;;;;;;10.67;3.27;;;9.80;99.90;;;;;;5050362;28;20280;-68
2023/04/16 06:05:41;;;;;;;10.47;2.83;;;9.70;99.90;;;;;;5049728;28;20229;-69
2023/04/16 06:08:07;;;;;;;7.07;2.60;;;9.70;99.90;;;;;;5050301;28;20297;-69
2023/04/16 06:10:32;;;;;;;8.87;2.90;;;9.90;99.90;;;;;;5050761;28;20235;-69
2023/04/16 06:12:58;;;;;;;9.47;2.77;;;9.50;99.90;;;;;;5050323;28;20183;-69
2023/04/16 06:15:24;;;;;;;9.23;2.43;;;;;;;;;;5050615;28;20702;-69
2023/04/16 06:17:50;;;;;;;9.27;2.33;;;;;;;;;;5050404;28;20726;-68
2023/04/16 06:20:16;;;;;;;14.27;3.00;;;10.00;99.90;;;;;;5050306;28;20233;-69
2023/04/16 06:22:41;;;;;;;10.03;2.50;;;10.40;99.90;;;;;;5050566;28;20189;-68
2023/04/16 06:25:08;;;;;;;9.27;2.30;;;10.00;99.90;;;;;;5050071;28;20173;-69
2023/04/16 06:27:33;;;;;;;3.60;2.07;;;10.00;99.90;;;;;;5050508;28;20181;-69
2023/04/16 06:29:59;;;;;;;10.53;2.40;;;;;;;;;;5049986;28;20181;-69
2023/04/16 06:32:25;;;;;;;9.60;3.33;;;10.10;99.90;;;;;;5050384;28;20188;-68
2023/04/16 06:34:51;;;;;;;9.27;2.73;;;10.10;99.90;;;;;;5049213;28;20545;-68
2023/04/16 06:37:16;;;;;;;6.90;2.67;;;10.30;99.90;;;;;;5050459;28;20185;-68
2023/04/16 06:39:42;;;;;;;5.73;2.90;;;10.30;99.90;;;;;;5049925;28;20679;-70
2023/04/16 06:42:08;;;;;;;8.13;3.07;;;10.30;99.90;;;;;;5050261;28;20621;-70
2023/04/16 06:44:35;;;;;;;9.50;2.97;;;10.10;99.90;;;;;;5050003;28;20639;-68
2023/04/16 06:47:00;;;;;;;6.93;2.80;;;10.50;99.90;;;;;;5050020;28;20268;-68
2023/04/16 06:49:26;;;;;;;10.40;2.97;;;10.30;99.90;;;;;;5050291;28;20264;-69
2023/04/16 06:51:51;;;;;;;7.47;2.87;;;10.50;99.90;;;;;;5049875;28;20260;-68
2023/04/16 06:54:18;;;;;;;12.63;3.43;;;10.40;99.90;;;;;;5050290;28;20998;-69
2023/04/16 06:56:44;;;;;;;6.97;2.80;;;10.30;99.90;;;;;;5049885;28;20267;-69
2023/04/16 06:59:10;;;;;;;8.33;3.10;;;10.40;99.90;;;;;;5049978;28;20304;-69
2023/04/16 07:01:35;;;;;;;8.10;2.93;;;10.40;99.90;;;;;;5049681;28;20304;-69
2023/04/16 07:04:01;;;;;;;6.50;2.90;;;10.60;99.90;;;;;;5050024;28;20182;-69
2023/04/16 07:06:26;;;;;;;8.27;2.97;;;10.70;99.90;;;;;;5049845;28;20188;-69
2023/04/16 07:08:52;;;;;;;13.47;3.20;;;10.90;99.90;;;;;;5050245;28;20533;-69
2023/04/16 07:11:18;;;;;;;7.70;2.90;;;10.90;99.90;;;;;;5048541;28;20196;-69
2023/04/16 07:13:44;;;;;;;9.87;2.53;;;;;;;;;;5049849;28;20170;-69
2023/04/16 07:16:10;;;;;;;8.60;2.93;;;11.10;99.90;;;;;;5049962;28;20670;-69
2023/04/16 07:18:35;;;;;;;11.43;2.83;;;11.10;99.90;;;;;;5048268;28;20277;-70
2023/04/16 07:21:01;;;;;;;8.83;2.50;;;11.20;99.90;;;;;;5050085;28;20213;-69
2023/04/16 07:23:26;;;;;;;5.00;2.67;;;11.10;99.90;;;;;;5049750;28;20549;-69
2023/04/16 07:25:52;;;;;;;9.80;3.20;;;11.20;99.90;;;;;;5049908;28;20747;-70
2023/04/16 07:28:18;;;;;;;4.43;2.73;;;11.20;99.90;;;;;;5049558;28;20216;-69
2023/04/16 07:30:43;;;;;;;12.43;2.90;;;11.20;99.90;;;;;;5050029;28;20182;-69
2023/04/16 07:33:09;;;;;;;5.03;2.93;;;11.10;99.90;;;;;;5049567;28;20181;-70
2023/04/16 07:35:35;;;;;;;11.50;2.60;;;11.20;99.90;;;;;;5049906;28;20277;-69
2023/04/16 07:38:01;;;;;;;12.30;3.23;;;11.70;99.90;;;;;;5049504;28;20648;-69
2023/04/16 07:40:26;;;;;;;10.60;2.50;;;12.90;99.90;;;;;;5049179;28;20216;-71
2023/04/16 07:42:53;;;;;;;12.23;2.40;;;11.20;99.90;;;;;;5050087;28;20177;-70
2023/04/16 07:45:18;;;;;;;15.83;2.80;;;11.30;99.90;;;;;;5049443;28;20545;-70
2023/04/16 07:47:44;;;;;;;8.03;3.07;;;11.00;99.90;;;;;;5052548;28;20632;-70
2023/04/16 07:50:11;;;;;;;9.10;2.80;;;11.30;99.90;;;;;;5053038;28;20181;-70
2023/04/16 07:52:40;;;;;;;6.53;2.67;;;11.50;99.90;;;;;;5053246;28;20644;-70
2023/04/16 07:55:06;;;;;;;12.83;2.93;;;11.50;99.90;;;;;;5053077;28;20238;-70
2023/04/16 07:57:32;;;;;;;6.83;2.47;;;11.50;99.90;;;;;;5053192;28;20176;-70
2023/04/16 08:00:00;;;;;;;6.17;2.83;;;;;;;;;;5052503;28;20652;-70
2023/04/16 08:02:26;;;;;;;5.57;2.43;;;11.70;99.90;;;;;;5053021;28;20706;-70
2023/04/16 08:04:52;;;;;;;4.67;1.97;;;11.80;99.90;;;;;;5052884;28;20173;-68
2023/04/16 08:07:17;;;;;;;7.32;2.30;;;11.80;99.90;;;;;;5052788;28;20181;-69
2023/04/16 08:09:48;;;;;;;7.60;1.77;;;12.00;99.90;;;;;;5053004;28;20470;-69
2023/04/16 08:12:15;;;;;;;7.65;1.75;;;12.00;99.90;;;;;;5052607;28;20169;-69
2023/04/16 08:14:40;;;;;;;7.27;1.80;;;11.90;99.90;;;;;;5052792;28;20192;-69
2023/04/16 08:17:06;;;;;;;8.40;2.03;;;12.00;99.90;;;;;;5052339;28;20181;-69
2023/04/16 08:19:32;;;;;;;5.73;1.70;;;12.00;99.90;;;;;;5052887;28;20739;-69
2023/04/16 08:21:57;;;;;;;6.07;1.73;;;12.10;99.90;;;;;;5052159;28;20240;-68
2023/04/16 08:24:23;;;;;;;7.17;2.00;;;12.10;99.90;;;;;;5052707;28;20181;-69
2023/04/16 08:26:49;;;;;;;10.87;2.50;;;12.10;99.90;;;;;;5052220;28;20609;-69
2023/04/16 08:29:15;;;;;;;7.72;2.13;;;12.00;99.90;;;;;;5051180;28;20188;-69
2023/04/16 08:31:40;;;;;;;6.72;1.77;;;12.20;99.90;;;;;;5052169;28;20255;-69
2023/04/16 08:34:06;;;;;;;4.77;1.47;;;12.20;99.90;;;;;;5052324;28;20227;-69
2023/04/16 08:36:32;;;;;;;4.28;1.70;;;12.30;99.90;;;;;;5052342;28;20173;-70
2023/04/16 08:38:57;;;;;;;5.90;1.50;;;12.20;99.90;;;;;;5051970;28;20184;-69
2023/04/16 08:41:23;;;;;;;4.00;1.03;;;12.30;99.90;;;;;;5052321;28;20755;-69
2023/04/16 08:43:54;;;;;;;5.60;1.50;;;12.30;99.90;;;;;;5051989;28;20189;-69
2023/04/16 08:46:23;;;;;;;9.47;1.40;;;12.40;99.90;;;;;;5043928;28;20558;-69
2023/04/16 08:48:53;;;;;;;5.93;1.20;;;12.30;99.90;;;;;;5051848;28;20208;-68
2023/04/16 08:51:22;;;;;;;3.97;1.40;;;12.40;99.90;;;;;;5052080;28;20283;-69
2023/04/16 08:53:52;;;;;;;7.37;1.40;;;12.30;99.90;;;;;;5051800;28;20283;-69
2023/04/16 08:56:21;;;;;;;6.40;1.50;;;12.30;99.90;;;;;;5051969;28;20181;-69
2023/04/16 08:58:50;;;;;;;6.70;1.57;;;12.30;99.90;;;;;;5048756;28;20676;-69
2023/04/16 09:01:17;;;;;;;9.03;1.20;;;12.30;99.90;;;;;;5050755;28;20233;-69
2023/04/16 09:03:46;;;;;;;8.93;1.33;;;12.30;99.90;;;;;;5050117;28;20177;-69
2023/04/16 09:06:12;;;;;;;13.40;1.40;;;12.30;99.90;;;;;;5051859;28;20188;-69
2023/04/16 09:08:38;;;;;;;7.27;1.23;;;12.60;99.90;;;;;;5051453;28;20181;-69
2023/04/16 09:11:04;;;;;;;5.47;1.33;;;12.20;99.90;;;;;;5051784;28;20211;-69
2023/04/16 09:13:33;;;;;;;6.70;1.33;;;12.30;99.90;;;;;;5051416;28;20181;-69
2023/04/16 09:15:59;;;;;;;9.80;1.80;;;12.40;99.90;;;;;;5047902;28;20291;-69
2023/04/16 09:18:24;;;;;;;10.13;1.90;;;12.30;99.90;;;;;;5051419;28;20177;-70
2023/04/16 09:20:51;;;;;;;10.63;1.70;;;12.10;99.90;;;;;;5050928;28;20209;-69
2023/04/16 09:23:17;;;;;;;8.43;2.00;;;12.10;99.90;;;;;;5051560;28;20192;-69
2023/04/16 09:25:42;;;;;;;5.73;1.23;;;12.30;99.90;;;;;;5051508;28;20173;-69
2023/04/16 09:28:09;;;;;;;9.63;1.33;;;12.30;99.90;;;;;;5051370;28;20177;-69
2023/04/16 09:30:36;;;;;;;4.97;1.13;;;12.30;99.90;;;;;;5051079;28;20553;-70
2023/04/16 09:33:15;;;;;;;6.30;1.37;;;12.20;99.90;;;;;;5051266;28;20177;-69
2023/04/16 09:35:59;;;;;;;6.97;1.50;;;12.30;99.90;;;;;;5050877;28;20318;-69
2023/04/16 09:38:25;;;;;;;10.10;1.67;;;12.40;99.90;;;;;;5045437;28;20172;-69
2023/04/16 09:41:07;;;;;;;6.73;1.20;;;12.30;99.90;;;;;;5050797;28;20212;-69
2023/04/16 09:43:34;;;;;;;4.43;1.13;;;12.30;99.90;;;;;;5050952;28;20184;-69
2023/04/16 09:45:59;;;;;;;7.80;1.63;;;12.40;99.90;;;;;;5050842;28;20268;-69
2023/04/16 09:48:30;;;;;;;8.77;1.67;;;12.40;99.90;;;;;;5051041;28;20322;-69
2023/04/16 09:50:56;;;;;;;9.03;1.70;;;12.60;99.90;;;;;;5050803;28;20221;-69
2023/04/16 09:53:28;;;;;;;5.80;1.10;;;12.60;99.90;;;;;;5050888;28;20231;-69
2023/04/16 09:56:02;;;;;;;8.83;1.23;;;12.60;99.90;;;;;;5050393;28;20181;-69
2023/04/16 09:58:28;;;;;;;4.63;1.23;;;13.00;99.90;;;;;;5050928;28;20181;-69
2023/04/16 10:01:10;;;;;;;10.70;1.23;;;13.00;99.90;;;;;;5048452;28;20229;-69
2023/04/16 10:03:38;;;;;;;6.33;1.27;;;13.10;99.90;;;;;;5050740;28;20346;-69
2023/04/16 10:06:12;;;;;;;4.53;1.43;;;13.10;99.90;;;;;;5050005;28;20651;-69
2023/04/16 10:08:43;;;;;;;5.07;1.42;;;13.20;99.90;;;;;;5050483;28;20263;-69
2023/04/16 10:11:09;;;;;;;7.40;1.30;;;13.30;99.90;;;;;;5050401;28;20177;-70
2023/04/16 10:13:35;;;;;;;8.30;1.50;;;13.30;99.90;;;;;;5050320;28;20173;-69
2023/04/16 10:16:02;;;;;;;5.45;1.33;;;12.50;99.90;;;;;;5050323;28;20230;-69
2023/04/16 10:18:28;;;;;;;8.57;1.70;;;13.10;99.90;;;;;;5050607;28;20205;-69
2023/04/16 10:20:54;;;;;;;9.60;1.40;;;13.00;99.90;;;;;;5050018;28;20679;-69
2023/04/16 10:23:21;;;;;;;6.72;1.10;;;13.10;99.90;;;;;;5050531;28;20270;-69
2023/04/16 10:25:51;;;;;;;7.30;1.57;;;12.90;99.90;;;;;;5050069;28;20445;-69
2023/04/16 10:28:17;;;;;;;9.20;1.50;;;13.10;99.90;;;;;;5050386;28;20173;-69
2023/04/16 10:30:51;;;;;;;9.25;1.80;;;13.00;99.90;;;;;;5050009;28;20239;-69
2023/04/16 10:33:22;;;;;;;7.13;1.30;;;13.10;99.90;;;;;;5050400;28;20589;-69
2023/04/16 10:35:49;;;;;;;5.25;1.40;;;13.30;99.90;;;;;;5049913;28;20228;-70
2023/04/16 10:38:27;;;;;;;4.93;1.20;;;13.60;99.90;;;;;;5050265;28;20205;-69
2023/04/16 10:41:01;;;;;;;6.78;1.58;;;13.30;99.90;;;;;;5049993;28;20550;-69
2023/04/16 10:43:29;;;;;;;5.97;1.83;;;13.40;99.90;;;;;;5041750;28;20643;-69
2023/04/16 10:45:54;;;;;;;2.63;1.00;;;13.30;99.90;;;;;;5050022;28;20205;-69
2023/04/16 10:48:22;;;;;;;7.33;1.27;;;13.20;99.90;;;;;;5042087;28;20212;-70
2023/04/16 10:50:56;;;;;;;6.03;1.00;;;13.10;99.90;;;;;;5048688;28;20222;-69
2023/04/16 10:53:24;;;;;;;5.53;1.00;;;14.10;99.90;;;;;;5042214;28;20181;-69
2023/04/16 10:56:06;;;;;;;7.53;1.52;;;13.10;99.90;;;;;;5049893;28;20185;-69
2023/04/16 10:58:34;;;;;;;11.60;1.58;;;13.20;99.90;;;;;;5043053;28;20183;-70
2023/04/16 11:01:05;;;;;;;6.88;1.00;;;13.10;99.90;;;;;;5048948;28;20270;-70
2023/04/16 11:03:31;;;;;;;4.40;1.35;;;13.30;99.90;;;;;;5050160;28;20231;-70
2023/04/16 11:06:16;;;;;;;4.90;1.35;;;13.30;99.90;;;;;;5049855;28;20192;-70
2023/04/16 11:08:46;;;;;;;9.80;1.30;;;13.20;99.90;;;;;;5044065;28;20181;-70
2023/04/16 11:11:12;;;;;;;5.57;0.93;;;13.10;99.90;;;;;;5049798;28;20268;-70
2023/04/16 11:13:43;;;;;;;4.65;1.20;;;13.30;99.90;;;;;;5050052;28;20184;-69
2023/04/16 11:16:09;;;;;;;5.55;1.50;;;13.00;99.90;;;;;;5049683;28;20181;-69
2023/04/16 11:18:35;;;;;;;8.13;1.20;;;13.20;99.90;;;;;;5050013;28;20264;-69
2023/04/16 11:21:01;;;;;;;7.18;1.20;;;13.90;99.90;;;;;;5049792;28;20213;-69
2023/04/16 11:23:27;;;;;;;5.78;1.33;;;13.50;99.90;;;;;;5053673;28;20188;-69
2023/04/16 11:25:56;;;;;;;7.47;1.65;;;13.80;99.90;;;;;;5052098;28;20200;-69
2023/04/16 11:28:34;;;;;;;8.30;1.58;;;13.90;99.90;;;;;;5053604;28;20200;-69
2023/04/16 11:31:09;;;;;;;6.20;1.33;;;13.70;99.90;;;;;;5053044;28;20185;-69
2023/04/16 11:33:36;;;;;;;9.20;1.27;;;13.90;99.90;;;;;;5045771;28;20172;-69
2023/04/16 11:36:02;;;;;;;11.82;1.48;;;14.00;99.90;;;;;;5052974;28;20274;-69
2023/04/16 11:38:35;;;;;;;3.10;1.48;;;14.10;99.90;;;;;;5053480;28;20584;-69
2023/04/16 11:41:01;;;;;;;5.35;1.73;;;13.80;99.90;;;;;;5052908;28;20699;-69
2023/04/16 11:43:27;;;;;;;4.60;1.50;;;13.80;99.90;;;;;;5053469;28;20259;-70
2023/04/16 11:46:01;;;;;;;5.72;1.33;;;13.90;99.90;;;;;;5051957;28;20227;-69
2023/04/16 11:48:50;;;;;;;7.78;1.65;;;13.50;99.90;;;;;;5053431;28;20180;-69
2023/04/16 11:51:17;;;;;;;8.45;1.58;;;13.60;99.90;;;;;;5052848;28;20169;-69
2023/04/16 11:54:01;;;;;;;5.22;1.40;;;13.60;99.90;;;;;;5053259;28;20223;-69
2023/04/16 11:56:34;;;;;;;7.13;1.30;;;13.70;99.90;;;;;;5053166;28;20267;-69
2023/04/16 11:59:12;;;;;;;4.35;1.13;;;13.80;99.90;;;;;;5049677;28;20173;-69
2023/04/16 12:01:40;;;;;;;6.25;1.10;;;13.70;99.90;;;;;;5050030;28;20216;-69
2023/04/16 12:04:06;;;;;;;4.65;0.98;;;13.50;99.90;;;;;;5053004;28;20240;-68
2023/04/16 12:06:32;;;;;;;5.40;1.13;;;13.70;99.90;;;;;;5052796;28;20652;-69
2023/04/16 12:09:18;;;;;;;3.57;0.97;;;13.70;99.90;;;;;;5052801;28;20188;-69
2023/04/16 12:11:44;;;;;;;10.05;1.30;;;14.00;99.90;;;;;;5050182;28;20605;-70
2023/04/16 12:14:11;;;;;;;6.90;1.65;;;13.80;99.90;;;;;;5052457;28;20264;-70
2023/04/16 12:16:37;;;;;;;4.57;1.00;;;13.90;99.90;;;;;;5047699;28;20207;-71
2023/04/16 12:19:03;;;;;;;5.78;1.30;;;13.90;99.90;;;;;;5052456;28;20646;-70
2023/04/16 12:21:36;;;;;;;7.22;1.10;;;13.90;99.90;;;;;;5050978;28;20239;-70
2023/04/16 12:24:02;;;;;;;4.22;0.95;;;13.90;99.90;;;;;;5052529;28;20173;-70
2023/04/16 12:26:41;;;;;;;5.70;1.45;;;14.00;99.90;;;;;;5052551;28;20256;-70
2023/04/16 12:29:13;;;;;;;3.88;1.17;;;14.00;99.90;;;;;;5052324;28;20636;-70
2023/04/16 12:31:39;;;;;;;9.18;1.50;;;14.00;99.90;;;;;;5052627;28;20177;-70
2023/04/16 12:34:04;;;;;;;5.32;1.40;;;14.10;99.90;;;;;;5049872;28;20183;-70
2023/04/16 12:36:30;;;;;;;7.10;1.42;;;14.10;99.90;;;;;;5052245;28;20578;-68
2023/04/16 12:38:56;;;;;;;4.25;1.20;;;14.20;99.90;;;;;;5052412;28;20185;-70
2023/04/16 12:41:21;;;;;;;8.18;1.60;;;14.10;99.90;;;;;;5051858;28;20636;-70
2023/04/16 12:43:47;;;;;;;6.65;1.30;;;13.90;99.90;;;;;;5052316;28;20173;-70
2023/04/16 12:46:12;;;;;;;7.20;1.50;;;13.40;99.90;;;;;;5051911;28;20260;-70
2023/04/16 12:48:38;;;;;;;7.03;1.50;;;13.60;99.90;;;;;;5052350;28;20257;-69
2023/04/16 12:51:04;;;;;;;7.73;1.33;;;13.50;99.90;;;;;;5051808;28;20181;-70